Time;durP1;ratioP1;P1;durP2;ratioP2;P2;SDS_P1;SDS_P2;PMS_P1;PMS_P2;Temp;Humidity;BMP_temperature;BMP_pressure;BME280_temperature;BME280_humidity;BME280_pressure;Samples;Min_cycle;Max_cycle;Signal;HPM_P1;HPM_P2
2022/12/10 00:01:35;;;;;;;34.93;21.10;;;;;;;-1.65;100.00;95076.56;5051787;28;20466;-76
2022/12/10 00:04:03;;;;;;;29.80;20.90;;;;;;;-1.72;100.00;95063.22;5052755;28;20464;-76
2022/12/10 00:06:35;;;;;;;29.47;19.90;;;;;;;-1.59;100.00;95079.88;5046157;28;20525;-76
2022/12/10 00:09:04;;;;;;;29.50;20.30;;;;;;;-1.81;100.00;95046.75;5031931;28;20473;-77
2022/12/10 00:11:31;;;;;;;29.30;20.77;;;;;;;-1.57;100.00;95083.72;5032046;28;20490;-76
2022/12/10 00:13:58;;;;;;;33.03;21.47;;;;;;;-1.64;100.00;95061.78;5032247;28;20469;-76
2022/12/10 00:16:27;;;;;;;34.63;22.40;;;;;;;-1.89;100.00;95039.59;5041751;28;20904;-76
2022/12/10 00:18:57;;;;;;;30.73;19.90;;;;;;;-1.80;100.00;95037.91;5017953;28;20442;-76
2022/12/10 00:21:27;;;;;;;30.43;20.37;;;;;;;-1.59;100.00;95064.34;5031034;28;20466;-77
2022/12/10 00:23:54;;;;;;;33.77;22.50;;;;;;;-1.93;100.00;95017.88;5031473;28;20858;-77
2022/12/10 00:26:26;;;;;;;28.43;19.60;;;;;;;-1.61;100.00;95066.41;5031340;28;20468;-77
2022/12/10 00:28:55;;;;;;;30.40;18.60;;;;;;;-1.64;100.00;95065.16;5015252;28;20442;-77
2022/12/10 00:31:28;;;;;;;32.73;21.60;;;;;;;-1.60;100.00;95066.16;5045363;28;20445;-77
2022/12/10 00:33:56;;;;;;;23.70;18.87;;;;;;;-1.62;100.00;95067.47;5028742;28;20824;-77
2022/12/10 00:36:30;;;;;;;30.70;20.13;;;;;;;-1.91;100.00;95006.19;5031114;28;20533;-77
2022/12/10 00:38:58;;;;;;;24.67;19.17;;;;;;;-1.85;100.00;95025.81;5014461;28;20532;-77
2022/12/10 00:41:27;;;;;;;25.20;16.37;;;;;;;-1.97;100.00;95012.50;5030994;28;20466;-77
2022/12/10 00:43:54;;;;;;;27.93;19.90;;;;;;;-1.59;100.00;95061.75;5053478;28;20445;-77
2022/12/10 00:46:20;;;;;;;25.50;16.30;;;;;;;-1.60;100.00;95063.56;5033297;28;20472;-77
2022/12/10 00:48:47;;;;;;;28.40;19.27;;;;;;;-1.82;100.00;95040.78;5030541;28;20462;-77
2022/12/10 00:51:23;;;;;;;31.20;20.73;;;;;;;-2.02;100.00;95015.16;5027256;28;20566;-77
2022/12/10 00:53:52;;;;;;;25.97;19.87;;;;;;;-2.28;100.00;94983.63;5030401;28;20521;-77
2022/12/10 00:56:24;;;;;;;28.83;18.23;;;;;;;-1.91;100.00;95031.31;5032548;28;20493;-77
2022/12/10 00:58:52;;;;;;;25.67;17.60;;;;;;;-1.64;100.00;95061.78;5049955;28;20437;-77
2022/12/10 01:01:40;;;;;;;30.10;20.60;;;;;;;-1.62;100.00;95065.63;5030297;28;20486;-77
2022/12/10 01:04:10;;;;;;;27.87;19.47;;;;;;;-2.06;100.00;95009.00;5029859;28;20439;-77
2022/12/10 01:06:44;;;;;;;25.83;18.47;;;;;;;-1.66;100.00;95074.25;5013835;28;20448;-77
2022/12/10 01:09:14;;;;;;;33.10;18.40;;;;;;;-1.72;100.00;95065.03;5013726;28;20938;-77
2022/12/10 01:11:43;;;;;;;29.43;20.83;;;;;;;-1.65;100.00;95076.56;5031143;28;20454;-77
2022/12/10 01:14:17;;;;;;;28.50;19.70;;;;;;;-1.98;100.00;95021.31;5029981;28;20488;-77
2022/12/10 01:16:47;;;;;;;31.47;20.13;;;;;;;-1.55;100.00;95070.50;5029691;28;20469;-77
2022/12/10 01:19:16;;;;;;;32.67;20.23;;;;;;;-1.49;100.00;95075.31;5031302;28;20954;-77
2022/12/10 01:21:42;;;;;;;29.37;20.20;;;;;;;-1.49;100.00;95072.72;5029803;28;20497;-77
2022/12/10 01:24:09;;;;;;;30.93;20.87;;;;;;;-1.85;100.00;95031.00;5030617;28;20471;-77
2022/12/10 01:26:36;;;;;;;28.90;20.60;;;;;;;-1.48;100.00;95076.06;5029827;28;20461;-77
2022/12/10 01:29:04;;;;;;;29.07;20.30;;;;;;;-1.56;100.00;95074.91;5013269;28;20466;-77
2022/12/10 01:31:34;;;;;;;28.53;19.67;;;;;;;-1.78;100.00;95051.34;5026593;28;20493;-77
2022/12/10 01:34:02;;;;;;;31.17;19.87;;;;;;;-1.63;100.00;95068.50;5029805;28;20864;-75
2022/12/10 01:36:31;;;;;;;29.47;19.60;;;;;;;-1.67;100.00;95064.94;5022719;28;20427;-76
2022/12/10 01:39:00;;;;;;;31.50;21.20;;;;;;;-1.85;100.00;95038.75;5031347;28;20439;-77
2022/12/10 01:41:40;;;;;;;28.47;19.90;;;;;;;-1.65;100.00;95076.56;5014986;28;20454;-77
2022/12/10 01:44:08;;;;;;;32.23;21.53;;;;;;;-1.64;100.00;95082.53;5033520;28;20507;-77
2022/12/10 01:46:38;;;;;;;34.37;21.10;;;;;;;-1.56;100.00;95105.22;5036327;28;20507;-77
2022/12/10 01:49:13;;;;;;;31.73;20.07;;;;;;;-1.47;100.00;95098.34;5051448;28;20422;-77
2022/12/10 01:51:42;;;;;;;34.73;21.67;;;;;;;-1.54;100.00;95057.25;5030021;28;20573;-77
2022/12/10 01:54:15;;;;;;;31.60;21.60;;;;;;;-1.03;100.00;95102.41;5029316;28;20987;-75
2022/12/10 01:56:45;;;;;;;26.37;19.03;;;;;;;-1.39;100.00;95079.59;5029162;28;20444;-75
2022/12/10 01:59:13;;;;;;;36.23;21.00;;;;;;;-1.78;100.00;95025.44;5029266;28;20529;-75
2022/12/10 02:02:02;;;;;;;31.10;23.07;;;;;;;-1.82;100.00;95040.03;5029309;28;20516;-75
2022/12/10 02:04:35;;;;;;;33.30;22.57;;;;;;;-1.37;100.00;95120.78;5033197;28;20449;-76
2022/12/10 02:07:11;;;;;;;33.00;21.63;;;;;;;-1.55;100.00;95099.00;5042935;28;20890;-76
2022/12/10 02:09:46;;;;;;;27.13;20.30;;;;;;;-1.64;100.00;95088.47;5050395;28;20490;-76
2022/12/10 02:12:17;;;;;;;26.80;21.67;;;;;;;-1.41;100.00;95122.38;5015894;28;20454;-76
2022/12/10 02:15:12;;;;;;;32.30;20.47;;;;;;;-1.42;100.00;95116.44;5039379;28;20544;-76
2022/12/10 02:17:44;;;;;;;28.33;20.30;;;;;;;-1.54;100.00;95110.91;5032537;28;20518;-76
2022/12/10 02:20:16;;;;;;;28.87;20.37;;;;;;;-1.62;100.00;95101.13;5034949;28;20446;-76
2022/12/10 02:22:56;;;;;;;27.33;19.77;;;;;;;-1.45;100.00;95121.41;5029075;28;20433;-76
2022/12/10 02:25:32;;;;;;;29.93;21.50;;;;;;;-1.55;100.00;95106.75;5030248;28;20446;-76
2022/12/10 02:28:21;;;;;;;28.07;19.93;;;;;;;-1.43;100.00;95117.50;5042390;28;20483;-75
2022/12/10 02:30:51;;;;;;;32.23;21.27;;;;;;;-1.81;100.00;95055.28;5038923;28;20965;-75
2022/12/10 02:33:19;;;;;;;25.50;19.60;;;;;;;-1.40;100.00;95118.75;5028288;28;20442;-75
2022/12/10 02:35:50;;;;;;;30.60;20.53;;;;;;;-1.48;100.00;95096.81;5030855;28;20434;-75
2022/12/10 02:38:23;;;;;;;27.07;20.63;;;;;;;-1.40;100.00;95100.59;5032438;28;20442;-76
2022/12/10 02:40:57;;;;;;;30.97;20.60;;;;;;;-1.25;100.00;95111.53;5016132;28;20454;-76
2022/12/10 02:43:26;;;;;;;27.73;20.17;;;;;;;-1.57;100.00;95057.81;5034798;28;20533;-75
2022/12/10 02:45:55;;;;;;;33.13;21.13;;;;;;;-1.29;100.00;95114.97;5019695;28;20478;-75
2022/12/10 02:48:23;;;;;;;28.77;20.13;;;;;;;-1.25;100.00;95116.72;5032370;28;20521;-75
2022/12/10 02:50:49;;;;;;;27.67;18.90;;;;;;;-1.37;100.00;95079.31;5015949;28;20466;-76
2022/12/10 02:53:16;;;;;;;28.40;18.50;;;;;;;-1.43;100.00;95101.16;5032173;28;20444;-76
2022/12/10 02:56:01;;;;;;;28.70;19.47;;;;;;;-1.40;100.00;95119.50;5035628;28;20422;-78
2022/12/10 02:58:56;;;;;;;27.93;18.67;;;;;;;-1.40;100.00;95118.75;5041918;28;20503;-76
2022/12/10 03:01:34;;;;;;;29.60;19.83;;;;;;;-1.48;100.00;95117.53;5035450;28;20461;-77
2022/12/10 03:04:25;;;;;;;26.33;18.83;;;;;;;-1.44;100.00;95118.53;5051858;28;20917;-77
2022/12/10 03:06:55;;;;;;;30.43;20.87;;;;;;;-1.25;100.00;95131.50;5035063;28;20989;-77
2022/12/10 03:09:30;;;;;;;28.27;19.33;;;;;;;-1.52;100.00;95083.66;5051819;28;20527;-77
2022/12/10 03:12:02;;;;;;;26.30;19.53;;;;;;;-1.15;100.00;95126.16;5052586;28;20883;-77
2022/12/10 03:14:32;;;;;;;25.67;17.37;;;;;;;-1.36;100.00;95084.19;5031693;28;20563;-77
2022/12/10 03:17:01;;;;;;;26.30;18.90;;;;;;;-1.54;100.00;95061.66;5031580;28;20435;-77
2022/12/10 03:19:34;;;;;;;34.27;20.23;;;;;;;-1.37;100.00;95118.19;5031737;28;20470;-77
2022/12/10 03:22:04;;;;;;;32.67;22.90;;;;;;;-1.78;100.00;95082.44;5034500;28;20468;-77
2022/12/10 03:24:32;;;;;;;28.80;21.13;;;;;;;-1.56;100.00;95115.59;5042762;28;20518;-77
2022/12/10 03:26:59;;;;;;;25.57;19.30;;;;;;;-1.88;100.00;95085.16;5031238;28;20509;-77
2022/12/10 03:29:31;;;;;;;33.83;21.37;;;;;;;-1.88;100.00;95091.09;5033089;28;20945;-77
2022/12/10 03:31:59;;;;;;;32.30;20.37;;;;;;;-1.98;100.00;95072.34;5044988;28;20447;-77
2022/12/10 03:34:26;;;;;;;28.57;18.70;;;;;;;-1.95;100.00;95069.97;5031557;28;20445;-77
2022/12/10 03:36:53;;;;;;;31.17;20.83;;;;;;;-1.97;100.00;95081.66;5032567;28;20988;-77
2022/12/10 03:39:21;;;;;;;29.23;19.50;;;;;;;-1.97;100.00;95085.00;5031340;28;20441;-77
2022/12/10 03:41:48;;;;;;;31.70;21.60;;;;;;;-1.95;100.00;95082.91;5032557;28;20473;-77
2022/12/10 03:44:29;;;;;;;29.37;19.23;;;;;;;-1.82;100.00;95100.34;5042009;28;20429;-77
2022/12/10 03:46:58;;;;;;;27.50;20.33;;;;;;;-1.96;100.00;95063.25;5020575;28;20446;-77
2022/12/10 03:49:25;;;;;;;25.00;17.60;;;;;;;-1.92;100.00;95072.00;5047290;28;20430;-77
2022/12/10 03:51:52;;;;;;;26.47;19.83;;;;;;;-1.70;100.00;95105.13;5052351;28;20456;-77
2022/12/10 03:54:19;;;;;;;29.17;18.83;;;;;;;-1.79;100.00;95086.06;5038245;28;20772;-78
2022/12/10 03:56:46;;;;;;;23.93;17.20;;;;;;;-1.66;100.00;95100.94;5039600;28;20478;-77
2022/12/10 03:59:12;;;;;;;26.23;20.00;;;;;;;-1.85;100.00;95087.97;5032141;28;20432;-77
2022/12/10 04:01:41;;;;;;;25.10;19.27;;;;;;;-1.75;100.00;95099.22;5031600;28;20446;-75
2022/12/10 04:04:08;;;;;;;30.57;19.70;;;;;;;-1.76;100.00;95100.28;5047753;28;20433;-75
2022/12/10 04:06:38;;;;;;;29.83;19.80;;;;;;;-1.81;100.00;95101.91;5050559;28;20461;-75
2022/12/10 04:09:05;;;;;;;26.83;18.30;;;;;;;-2.14;100.00;95051.00;5033958;28;20876;-75
2022/12/10 04:11:32;;;;;;;27.20;18.97;;;;;;;-1.92;100.00;95069.41;5050516;28;20463;-75
2022/12/10 04:16:48;;;;;;;29.13;17.57;;;;;;;-1.76;100.00;95069.97;5030925;28;20426;-74
2022/12/10 04:19:17;;;;;;;30.33;19.37;;;;;;;-1.53;100.00;95104.66;5030399;28;20445;-75
2022/12/10 04:27:31;;;;;;;25.33;18.33;;;;;;;-1.67;100.00;95096.03;5018582;28;20576;-75
2022/12/10 04:30:00;;;;;;;24.90;19.33;;;;;;;-1.66;100.00;95100.16;5031513;28;20429;-75
2022/12/10 04:32:28;;;;;;;30.23;20.57;;;;;;;-1.67;100.00;95094.22;5016439;28;20881;-76
2022/12/10 04:34:56;;;;;;;29.83;18.67;;;;;;;-1.77;100.00;95071.03;5043445;28;20437;-76
2022/12/10 04:37:23;;;;;;;29.20;19.10;;;;;;;-1.65;100.00;95083.56;5031594;28;20745;-76
2022/12/10 04:39:51;;;;;;;27.00;19.07;;;;;;;-1.24;100.00;95094.91;5033211;28;20437;-76
2022/12/10 04:42:18;;;;;;;28.07;18.47;;;;;;;-1.16;100.00;95082.38;5051367;28;20514;-77
2022/12/10 04:44:45;;;;;;;28.93;21.50;;;;;;;-1.18;100.00;95074.88;5049832;28;20527;-77
2022/12/10 04:47:13;;;;;;;30.23;19.07;;;;;;;-1.07;100.00;95094.44;5061202;28;20500;-77
2022/12/10 04:49:40;;;;;;;29.70;19.10;;;;;;;-1.13;100.00;95098.13;5043532;28;20426;-77
2022/12/10 04:52:10;;;;;;;25.57;18.70;;;;;;;-1.37;100.00;95098.22;5033079;28;20492;-77
2022/12/10 04:54:37;;;;;;;33.33;20.67;;;;;;;-1.70;100.00;95061.09;5033319;28;20419;-77
2022/12/10 04:57:06;;;;;;;27.50;19.07;;;;;;;-1.56;100.00;95100.81;5029707;28;20529;-77
2022/12/10 04:59:34;;;;;;;31.13;20.70;;;;;;;-1.84;100.00;95066.19;5030762;28;20480;-77
2022/12/10 05:02:01;;;;;;;28.43;19.13;;;;;;;-1.84;100.00;95073.97;5029635;28;20457;-76
2022/12/10 05:04:27;;;;;;;28.50;20.53;;;;;;;-1.80;100.00;95079.34;5036235;28;20429;-77
2022/12/10 05:06:54;;;;;;;30.37;20.50;;;;;;;-1.84;100.00;95073.97;5033074;28;20465;-77
2022/12/10 05:09:22;;;;;;;26.40;18.37;;;;;;;-1.27;100.00;95113.63;5014259;28;20437;-77
2022/12/10 05:11:49;;;;;;;31.60;20.47;;;;;;;-1.24;100.00;95115.66;5030864;28;20450;-77
2022/12/10 05:14:15;;;;;;;28.33;18.87;;;;;;;-1.27;100.00;95100.66;5029848;28;20435;-76
2022/12/10 05:16:42;;;;;;;33.47;20.20;;;;;;;-1.20;100.00;95121.06;5030693;28;20430;-77
2022/12/10 05:19:10;;;;;;;26.63;19.67;;;;;;;-1.11;100.00;95121.97;5012955;28;20445;-77
2022/12/10 05:24:22;;;;;;;28.57;18.93;;;;;;;-1.17;100.00;95127.50;5034871;28;20448;-77
2022/12/10 05:26:50;;;;;;;34.27;20.73;;;;;;;-1.54;100.00;95095.34;5044510;28;20539;-77
2022/12/10 05:29:18;;;;;;;31.97;19.20;;;;;;;-1.44;100.00;95121.13;5049126;28;20945;-77
2022/12/10 05:31:46;;;;;;;28.93;20.27;;;;;;;-1.59;100.00;95111.75;5049264;28;20445;-77
2022/12/10 05:34:13;;;;;;;33.47;19.70;;;;;;;-1.91;100.00;95068.34;5040110;28;20504;-77
2022/12/10 05:36:39;;;;;;;32.23;20.43;;;;;;;-1.69;100.00;95096.31;5003251;28;20484;-77
2022/12/10 05:39:06;;;;;;;31.07;19.00;;;;;;;-1.61;100.00;95116.41;5029374;28;20525;-77
2022/12/10 05:41:38;;;;;;;24.70;17.90;;;;;;;-1.87;100.00;95079.72;5029270;28;20461;-77
2022/12/10 05:44:07;;;;;;;34.23;19.30;;;;;;;-1.59;100.00;95118.75;5040730;28;20988;-77
2022/12/10 05:46:34;;;;;;;26.67;19.80;;;;;;;-1.88;100.00;95070.38;5020604;28;20469;-77
2022/12/10 05:49:03;;;;;;;25.40;19.73;;;;;;;-1.67;100.00;95121.94;5049038;28;20477;-77
2022/12/10 05:51:32;;;;;;;26.87;18.10;;;;;;;-1.93;100.00;95077.44;5043501;28;20561;-77
2022/12/10 05:54:01;;;;;;;28.23;19.70;;;;;;;-1.75;100.00;95122.53;5029142;28;20763;-77
2022/12/10 05:56:28;;;;;;;26.00;20.40;;;;;;;-1.77;100.00;95119.47;5030410;28;20421;-77
2022/12/10 05:58:58;;;;;;;32.07;19.00;;;;;;;-1.79;100.00;95117.16;5030378;28;20525;-77
2022/12/10 06:01:28;;;;;;;28.10;20.17;;;;;;;-2.14;100.00;95080.28;5037522;28;20459;-77
2022/12/10 06:03:57;;;;;;;30.60;20.60;;;;;;;-2.02;100.00;95085.06;5048850;28;20447;-77
2022/12/10 06:06:29;;;;;;;32.30;21.90;;;;;;;-1.85;100.00;95111.28;5024672;28;20466;-77
2022/12/10 06:08:57;;;;;;;30.67;20.80;;;;;;;-1.68;100.00;95117.81;5029818;28;20536;-77
2022/12/10 06:11:26;;;;;;;29.77;20.50;;;;;;;-2.04;100.00;95076.03;5032840;28;20516;-77
2022/12/10 06:13:54;;;;;;;33.80;22.00;;;;;;;-1.93;100.00;95101.53;5035574;28;20541;-77
2022/12/10 06:16:23;;;;;;;31.30;21.87;;;;;;;-1.78;100.00;95118.69;5052887;28;20444;-77
2022/12/10 06:18:50;;;;;;;31.40;21.30;;;;;;;-1.90;100.00;95113.91;5053923;28;20527;-77
2022/12/10 06:21:18;;;;;;;29.87;21.60;;;;;;;-2.16;100.00;95082.34;5053021;28;20857;-77
2022/12/10 06:23:46;;;;;;;33.20;23.70;;;;;;;-2.10;100.00;95101.22;5035910;28;20446;-77
2022/12/10 06:26:17;;;;;;;25.83;20.40;;;;;;;-1.92;100.00;95115.25;5049519;28;20560;-77
2022/12/10 06:28:45;;;;;;;32.10;21.87;;;;;;;-1.93;100.00;95105.94;5038595;28;20421;-77
2022/12/10 06:31:13;;;;;;;32.23;21.40;;;;;;;-2.15;100.00;95085.72;5054366;28;21024;-77
2022/12/10 06:33:40;;;;;;;36.73;23.50;;;;;;;-2.40;100.00;95053.91;5052905;28;20452;-77
2022/12/10 06:36:09;;;;;;;34.37;22.03;;;;;;;-2.23;100.00;95083.75;5035210;28;20427;-77
2022/12/10 06:38:36;;;;;;;36.57;23.37;;;;;;;-2.24;100.00;95074.44;5034031;28;20461;-77
2022/12/10 06:41:08;;;;;;;47.20;25.40;;;;;;;-2.54;100.00;95045.25;5032516;28;21025;-77
2022/12/10 06:43:35;;;;;;;35.13;23.23;;;;;;;-2.34;100.00;95075.31;5035911;28;20467;-77
2022/12/10 06:46:07;;;;;;;40.40;25.50;;;;;;;-2.47;100.00;95063.03;5038020;28;20468;-77
2022/12/10 06:48:35;;;;;;;31.90;21.00;;;;;;;-2.13;100.00;95087.00;5033707;28;20433;-77
2022/12/10 06:51:03;;;;;;;32.30;24.90;;;;;;;-1.93;100.00;95093.75;5015545;28;20468;-77
2022/12/10 06:53:31;;;;;;;28.23;19.53;;;;;;;-1.66;100.00;95128.66;5024606;28;20861;-77
2022/12/10 06:55:59;;;;;;;37.13;22.70;;;;;;;-1.69;100.00;95142.19;5052196;28;20443;-77
2022/12/10 06:58:30;;;;;;;33.60;21.67;;;;;;;-2.18;100.00;95114.75;5042447;28;20469;-77
2022/12/10 07:01:03;;;;;;;29.80;21.33;;;;;;;-2.19;100.00;95120.97;5032303;28;20500;-77
2022/12/10 07:03:29;;;;;;;34.90;23.90;;;;;;;-2.05;100.00;95123.66;5032795;28;20426;-77
2022/12/10 07:05:58;;;;;;;32.43;23.97;;;;;;;-2.18;100.00;95094.03;5015451;28;20438;-77
2022/12/10 07:08:25;;;;;;;65.03;39.23;;;;;;;-1.94;100.00;95086.25;5026917;28;20961;-77
2022/12/10 07:10:52;;;;;;;42.67;31.40;;;;;;;-1.56;100.00;95142.28;5038420;28;20441;-77
2022/12/10 07:13:19;;;;;;;32.23;22.90;;;;;;;-1.59;100.00;95142.06;5035392;28;20443;-76
2022/12/10 07:15:48;;;;;;;30.23;25.13;;;;;;;-1.50;100.00;95133.38;5051823;28;20421;-76
2022/12/10 07:18:15;;;;;;;35.23;24.00;;;;;;;-1.82;100.00;95115.91;5020723;28;20439;-76
2022/12/10 07:20:42;;;;;;;32.87;21.90;;;;;;;-1.82;100.00;95128.06;5030607;28;20544;-76
2022/12/10 07:23:08;;;;;;;28.63;20.93;;;;;;;-1.91;100.00;95137.50;5033211;28;20427;-76
2022/12/10 07:25:35;;;;;;;25.80;20.70;;;;;;;-1.89;100.00;95143.94;5031539;28;20532;-76
2022/12/10 07:28:02;;;;;;;31.60;23.20;;;;;;;-1.81;100.00;95117.44;5031440;28;20573;-76
2022/12/10 07:30:29;;;;;;;28.90;23.90;;;;;;;-1.47;100.00;95145.00;5015181;28;20473;-77
2022/12/10 07:32:55;;;;;;;29.00;22.67;;;;;;;-1.54;100.00;95145.34;5031668;28;20532;-77
2022/12/10 07:35:22;;;;;;;31.67;23.50;;;;;;;-1.60;100.00;95125.75;5032104;28;20770;-77
2022/12/10 07:37:48;;;;;;;33.40;24.47;;;;;;;-1.44;100.00;95159.22;5011722;28;20447;-77
2022/12/10 07:40:15;;;;;;;36.83;25.70;;;;;;;-1.56;100.00;95147.44;5018737;28;20453;-77
2022/12/10 07:42:42;;;;;;;34.93;22.53;;;;;;;-1.68;100.00;95144.50;5031851;28;20438;-76
2022/12/10 07:45:09;;;;;;;35.97;22.37;;;;;;;-1.70;100.00;95141.41;5044737;28;20457;-76
2022/12/10 07:47:38;;;;;;;32.43;20.60;;;;;;;-1.74;100.00;95124.84;5031295;28;20466;-76
2022/12/10 07:50:06;;;;;;;26.90;20.03;;;;;;;-1.55;100.00;95135.25;5031041;28;20862;-76
2022/12/10 07:52:33;;;;;;;34.63;20.23;;;;;;;-1.42;100.00;95131.97;5029267;28;20437;-76
2022/12/10 07:55:00;;;;;;;33.50;20.70;;;;;;;-1.69;100.00;95072.22;5034573;28;20446;-76
2022/12/10 07:57:29;;;;;;;37.60;24.57;;;;;;;-1.27;100.00;95143.97;5054852;28;20496;-76
2022/12/10 07:59:55;;;;;;;30.27;21.03;;;;;;;-1.12;100.00;95176.69;5032714;28;20978;-77
2022/12/10 08:02:22;;;;;;;34.53;22.50;;;;;;;-1.33;100.00;95158.06;5014415;28;21054;-76
2022/12/10 08:04:49;;;;;;;32.80;24.37;;;;;;;-1.50;100.00;95137.78;5031154;28;20517;-77
2022/12/10 08:07:16;;;;;;;36.40;22.43;;;;;;;-1.27;100.00;95173.25;5031585;28;20564;-77
2022/12/10 08:09:42;;;;;;;86.00;59.27;;;;;;;-1.49;100.00;95131.53;5033207;28;20430;-77
2022/12/10 08:12:09;;;;;;;31.00;23.10;;;;;;;-1.31;100.00;95161.16;5015736;28;20490;-77
2022/12/10 08:14:36;;;;;;;32.00;21.73;;;;;;;-1.13;100.00;95186.28;5016621;28;20875;-77
2022/12/10 08:17:03;;;;;;;29.07;22.57;;;;;;;-1.15;100.00;95190.22;5031812;28;20872;-77
2022/12/10 08:19:29;;;;;;;34.10;28.07;;;;;;;-1.37;100.00;95160.41;5030834;28;21021;-77
2022/12/10 08:21:57;;;;;;;41.27;26.80;;;;;;;-1.43;100.00;95161.53;5032901;28;20468;-77
2022/12/10 08:24:24;;;;;;;46.67;32.03;;;;;;;-1.43;100.00;95168.56;5025156;28;20882;-77
2022/12/10 08:26:51;;;;;;;32.13;24.87;;;;;;;-1.55;100.00;95154.16;5038932;28;20473;-76
2022/12/10 08:29:18;;;;;;;33.07;21.23;;;;;;;-1.39;100.00;95201.41;5045718;28;20437;-78
2022/12/10 08:31:45;;;;;;;33.23;21.40;;;;;;;-1.71;100.00;95149.47;5038301;28;20496;-77
2022/12/10 08:34:13;;;;;;;40.53;26.93;;;;;;;-1.56;100.00;95164.81;5031583;28;20439;-77
2022/12/10 08:36:40;;;;;;;38.07;24.50;;;;;;;-1.28;100.00;95191.69;5021275;28;20458;-77
2022/12/10 08:39:10;;;;;;;67.27;58.67;;;;;;;-1.56;100.00;95162.22;5032877;28;20440;-77
2022/12/10 08:41:36;;;;;;;48.80;37.83;;;;;;;-1.69;100.00;95147.34;5052426;28;20488;-75
2022/12/10 08:44:03;;;;;;;48.63;40.30;;;;;;;-1.38;100.00;95181.44;5049953;28;20441;-75
2022/12/10 08:46:30;;;;;;;33.00;27.60;;;;;;;-1.14;100.00;95187.34;5031632;28;20438;-75
2022/12/10 08:48:56;;;;;;;33.73;25.07;;;;;;;-1.15;100.00;95192.81;5030173;28;20430;-76
2022/12/10 08:51:24;;;;;;;37.83;29.17;;;;;;;-1.34;100.00;95174.63;5049215;28;20463;-75
2022/12/10 08:53:50;;;;;;;31.83;22.90;;;;;;;-1.31;100.00;95205.22;5051289;28;20524;-75
2022/12/10 08:56:17;;;;;;;32.23;24.03;;;;;;;-1.60;100.00;95164.59;5033357;28;20528;-75
2022/12/10 08:58:44;;;;;;;31.70;23.10;;;;;;;-1.37;100.00;95204.47;5019067;28;20797;-76
2022/12/10 09:01:15;;;;;;;30.70;20.93;;;;;;;-1.37;100.00;95196.72;5028705;28;20466;-76
2022/12/10 09:03:42;;;;;;;33.17;21.07;;;;;;;-1.53;100.00;95180.56;5030105;28;20820;-76
2022/12/10 09:06:17;;;;;;;28.17;20.00;;;;;;;-1.59;100.00;95175.75;5019955;28;20448;-75
2022/12/10 09:08:44;;;;;;;29.10;20.70;;;;;;;-1.45;100.00;95189.56;5050278;28;20504;-76
2022/12/10 09:11:15;;;;;;;32.37;21.20;;;;;;;-1.57;100.00;95166.63;5013295;28;20464;-75
2022/12/10 09:13:42;;;;;;;35.70;23.10;;;;;;;-1.34;100.00;95209.09;5033237;28;20894;-76
2022/12/10 09:16:09;;;;;;;31.57;21.93;;;;;;;-1.27;100.00;95211.38;5050080;28;20433;-75
2022/12/10 09:18:36;;;;;;;31.60;21.23;;;;;;;-1.38;100.00;95192.56;5048068;28;20437;-75
2022/12/10 09:21:12;;;;;;;36.80;21.27;;;;;;;-1.17;100.00;95205.28;5029494;28;20569;-75
2022/12/10 09:23:39;;;;;;;34.50;21.47;;;;;;;-1.39;100.00;95180.66;5029909;28;20512;-76
2022/12/10 09:26:08;;;;;;;29.63;21.97;;;;;;;-1.15;100.00;95196.19;5013304;28;20434;-75
2022/12/10 09:28:36;;;;;;;30.33;20.77;;;;;;;-1.42;100.00;95163.09;5013373;28;20454;-76
2022/12/10 09:31:05;;;;;;;33.23;22.10;;;;;;;-1.08;100.00;95208.78;5029755;28;20470;-76
2022/12/10 09:33:41;;;;;;;31.20;22.30;;;;;;;-1.29;100.00;95167.59;5035186;28;20451;-76
2022/12/10 09:36:12;;;;;;;29.37;20.07;;;;;;;-1.18;100.00;95183.78;5040622;28;20448;-76
2022/12/10 09:38:41;;;;;;;35.60;24.33;;;;;;;-1.02;100.00;95200.66;5014001;28;20518;-78
2022/12/10 09:41:10;;;;;;;28.17;20.17;;;;;;;-1.00;100.00;95195.19;5015752;28;20978;-77
2022/12/10 09:43:48;;;;;;;31.27;22.10;;;;;;;-1.01;100.00;95204.81;5036237;28;20437;-77
2022/12/10 09:46:33;;;;;;;35.47;23.97;;;;;;;-1.00;100.00;95197.78;5045023;28;20448;-75
2022/12/10 09:49:05;;;;;;;31.87;23.27;;;;;;;-0.98;100.00;95204.25;5057051;28;20434;-75
2022/12/10 09:51:36;;;;;;;45.83;21.90;;;;;;;-0.95;100.00;95201.09;5055800;28;20492;-75
2022/12/10 09:54:29;;;;;;;33.83;21.80;;;;;;;-0.86;100.00;95195.28;5057248;28;20437;-75
2022/12/10 09:56:57;;;;;;;36.90;23.90;;;;;;;-1.09;100.00;95182.09;5056130;28;20447;-75
2022/12/10 09:59:30;;;;;;;35.30;20.77;;;;;;;-0.92;100.00;95181.63;5057093;28;20468;-75
2022/12/10 10:02:20;;;;;;;35.90;23.17;;;;;;;-0.82;100.00;95180.69;5055904;28;20453;-75
2022/12/10 10:04:49;;;;;;;29.60;20.60;;;;;;;-0.89;100.00;95181.03;5057038;28;20437;-75
2022/12/10 10:07:23;;;;;;;26.87;19.97;;;;;;;-1.04;100.00;95168.28;5057358;28;20463;-75
2022/12/10 10:09:54;;;;;;;30.60;20.70;;;;;;;-0.88;100.00;95187.78;5039347;28;20476;-74
2022/12/10 10:12:21;;;;;;;34.57;21.97;;;;;;;-0.79;100.00;95180.13;5055907;28;20465;-74
2022/12/10 10:14:48;;;;;;;30.33;22.30;;;;;;;-0.90;100.00;95153.56;5055801;28;20432;-74
2022/12/10 10:17:29;;;;;;;36.67;22.80;;;;;;;-0.72;100.00;95189.09;5057469;28;20524;-74
2022/12/10 10:19:59;;;;;;;37.30;23.20;;;;;;;-0.77;100.00;95183.97;5056260;28;20452;-74
2022/12/10 10:22:26;;;;;;;27.30;19.87;;;;;;;-0.86;100.00;95153.75;5038160;28;20916;-74
2022/12/10 10:24:53;;;;;;;30.17;21.50;;;;;;;-0.66;100.00;95163.84;5036142;28;20445;-75
2022/12/10 10:27:23;;;;;;;27.07;21.13;;;;;;;-0.43;100.00;95188.13;5035694;28;20585;-75
2022/12/10 10:29:52;;;;;;;25.40;21.70;;;;;;;-0.45;100.00;95182.44;5035728;28;20444;-72
2022/12/10 10:32:36;;;;;;;29.93;18.73;;;;;;;-0.40;100.00;95190.16;5035852;28;20469;-72
2022/12/10 10:35:04;;;;;;;34.03;21.77;;;;;;;-0.51;100.00;95179.19;5035653;28;20437;-73
2022/12/10 10:37:41;;;;;;;29.97;21.10;;;;;;;-0.54;100.00;95171.94;5037389;28;20426;-73
2022/12/10 10:40:28;;;;;;;30.53;21.20;;;;;;;-0.40;100.00;95190.16;5035789;28;20450;-73
2022/12/10 10:42:58;;;;;;;29.13;21.60;;;;;;;-0.38;100.00;95162.88;5035796;28;20973;-73
2022/12/10 10:45:41;;;;;;;36.97;22.57;;;;;;;-0.17;100.00;95181.47;5045648;28;20438;-73
2022/12/10 10:48:11;;;;;;;27.47;21.17;;;;;;;-0.24;100.00;95191.47;5035770;28;20514;-73
2022/12/10 10:51:04;;;;;;;26.43;16.40;;;;;;;-0.45;100.00;95185.81;5035546;28;20472;-73
2022/12/10 10:53:38;;;;;;;26.23;16.60;;;;;;;-0.25;100.00;95205.50;5035831;28;20452;-73
2022/12/10 10:56:08;;;;;;;22.33;16.97;;;;;;;-0.58;100.00;95186.53;5033669;28;20529;-73
2022/12/10 10:58:44;;;;;;;23.03;16.47;;;;;;;-0.36;100.00;95210.09;5016081;28;20837;-73
2022/12/10 11:01:13;;;;;;;21.67;15.37;;;;;;;-0.81;100.00;95146.66;5032070;28;20458;-74
2022/12/10 11:03:47;;;;;;;21.47;15.77;;;;;;;-0.86;100.00;95128.59;5032299;28;20492;-74
2022/12/10 11:06:14;;;;;;;21.77;14.40;;;;;;;-0.31;100.00;95222.97;5051885;28;20772;-74
2022/12/10 11:08:43;;;;;;;21.30;16.50;;;;;;;-0.39;100.00;95192.47;5051775;28;20522;-75
2022/12/10 11:11:25;;;;;;;19.87;13.63;;;;;;;-0.47;100.00;95184.56;5015488;28;20497;-76
2022/12/10 11:13:52;;;;;;;20.63;15.10;;;;;;;-0.38;100.00;95196.63;5033090;28;20469;-75
2022/12/10 11:16:22;;;;;;;24.53;16.70;;;;;;;-0.17;100.00;95219.66;5031704;28;20440;-75
2022/12/10 11:19:01;;;;;;;22.03;14.13;;;;;;;-0.03;100.00;95212.66;5033196;28;20802;-75
2022/12/10 11:21:30;;;;;;;23.77;17.40;;;;;;;0.10;100.00;95193.72;5031756;28;20461;-75
2022/12/10 11:23:59;;;;;;;31.33;24.57;;;;;;;0.14;100.00;95168.72;5015236;28;20439;-77
2022/12/10 11:27:08;;;;;;;31.30;21.80;;;;;;;-0.10;100.00;95205.25;5027900;28;20441;-76
2022/12/10 11:30:00;;;;;;;29.07;19.80;;;;;;;-0.18;100.00;95192.13;5019386;28;20473;-76
2022/12/10 11:32:47;;;;;;;28.73;20.73;;;;;;;-0.25;100.00;95196.94;5051268;28;20434;-76
2022/12/10 11:35:19;;;;;;;33.47;24.30;;;;;;;-0.37;100.00;95195.56;5031379;28;20525;-76